Terminal Aerodrome Forecast
Issued by NWS Billings, MT

Home | Current Version | Previous Version | Text Only | Print | Product List | Glossary Off
Versions: 1 2 3 4 5 6 7 8 9 10 11 12 13 14 15 16 17 18 19 20 21 22 23 24 25 26 27 28 29 30 31 32 33 34 35 36 37 38 39 40

173
FTUS45 KBYZ 010521
TAFMLS
TAF
KMLS 010521Z 0106/0206 VRB05KT P6SM BKN070 BKN110
     FM010900 VRB05KT P6SM FEW015 SCT030 BKN100
     FM012000 30005KT P6SM BKN030 BKN050 OVC100=

USA.gov is the U.S. government's official web portal to all federal, state and local government web resources and services.